BBRO2: Mountain Fork, Broken Bow Rereg

                                SHEF ID:       BBRO2     Mountain Fork Re-regulation Dam
STATION TYPE:

STAGE RIV-FLOW VOLTAGE BAT-LOAD
ft cfs volt volt
Ccp-Rev Ccp-Rev Ccp-Rev Ccp-Rev
(America/Chicago)
04/25 00:00 394.47 2550 13.19 12.57
04/25 01:00 393.86 2219 13.19 12.57
04/25 02:00 393.31 1896 13.19 12.59
04/25 03:00 392.81 1645 13.19 12.58
04/25 04:00 392.37 1454 13.16 12.59
04/25 05:00 391.98 1301 13.19 12.60
04/25 06:00 391.64 1156 13.19 12.60
04/25 07:00 391.30 1027 13.19 12.59
04/25 08:00 391.04 938 13.19 12.61
04/25 09:00 390.79 823 13.19 12.57
04/25 10:00 390.57 728 13.19 12.54
04/25 11:00 390.38 655 13.19 12.54
04/25 12:00 390.20 593 13.19 12.54
04/25 13:00 390.05 545 13.18 12.53
04/25 14:00 389.93 505 13.17 12.52
04/25 15:00 389.81 464 13.19 12.53
04/25 16:00 389.69 427 13.17 12.48
04/25 17:00 389.60 401 13.16 12.46
04/25 18:00 390.03 539 13.16 12.43
04/25 19:00 392.84 1659 13.18 12.46
04/25 20:00 394.94 2814 13.17 12.41
04/25 21:00 395.53 3132 13.17 12.45
04/25 22:00 394.83 2750 13.17 12.37
04/25 23:00 394.20 2409 13.13 12.44
Data processed at Sun 26Apr2026 04:34 GMT

NOTICE: If you are parsing this page

Please convert to using our Data API. Starting early 2026 we will be migrating to: https://water.usace.army.mil with modern pages rendered in JavaScript. When this migration completes you will no longer be able to scrape this page! CWMSDataAPI (CDA)

Timeseries IDs (TSIDs)

TSIDs used from left to right in the data table
BROM.Stage.Inst.1Hour.0.Ccp-Rev
BROM.Flow.Inst.1Hour.0.Ccp-Rev
BROM.Volt-Battery.Inst.1Hour.0.Ccp-Rev
BROM.Volt-Battery Load.Inst.1Hour.0.Ccp-Rev

                            

All information presented herein is the property of the government of the United States of America and may be revised or deleted at any time without prior notice. Dissemination of this information without the expressed written consent of the Public Affairs Office, Tulsa District U.S. Army Corps of Engineers is strictly prohibited. These data are gathered electronically and, as presented, have NOT undergone any form of quality control. These data are NOT guaranteed to be valid or correct.